Time;durP1;ratioP1;P1;durP2;ratioP2;P2;SDS_P1;SDS_P2;PMS_P1;PMS_P2;Temp;Humidity;BMP_temperature;BMP_pressure;BME280_temperature;BME280_humidity;BME280_pressure;Samples;Min_cycle;Max_cycle;Signal;HPM_P1;HPM_P2
2022/10/10 00:00:51;;;;;;;8.75;6.00;;;;;;;15.51;48.65;100287.75;5092034;28;20044;-82
2022/10/10 00:03:18;;;;;;;7.15;6.43;;;;;;;15.49;48.88;100296.94;5093580;28;20051;-81
2022/10/10 00:05:44;;;;;;;6.82;6.10;;;;;;;15.32;48.55;100260.97;5092180;28;20066;-81
2022/10/10 00:08:10;;;;;;;8.13;6.70;;;;;;;14.77;49.12;100180.03;5093351;28;20405;-81
2022/10/10 00:10:36;;;;;;;6.78;5.75;;;;;;;14.66;49.02;100159.28;5093219;28;20420;-82
2022/10/10 00:13:04;;;;;;;6.80;5.78;;;;;;;15.61;48.29;100284.00;5093180;28;20417;-81
2022/10/10 00:15:29;;;;;;;6.28;5.65;;;;;;;15.65;48.68;100298.56;5093435;28;20066;-81
2022/10/10 00:17:54;;;;;;;7.13;6.03;;;;;;;15.07;48.44;100216.16;5106265;28;20012;-81
2022/10/10 00:20:20;;;;;;;7.63;5.85;;;;;;;15.45;48.60;100275.22;5118206;28;20008;-79
2022/10/10 00:22:47;;;;;;;7.88;6.03;;;;;;;15.56;48.63;100296.00;5108039;28;20394;-81
2022/10/10 00:25:13;;;;;;;7.45;5.90;;;;;;;15.30;48.88;100249.69;5093332;28;20553;-80
2022/10/10 00:27:39;;;;;;;6.72;6.10;;;;;;;15.23;48.76;100245.16;5093352;28;20031;-81
2022/10/10 00:30:07;;;;;;;8.43;6.07;;;;;;;15.55;48.98;100293.53;5093160;28;20019;-82
2022/10/10 00:32:33;;;;;;;7.22;5.90;;;;;;;15.61;48.89;100294.66;5092905;28;20020;-82
2022/10/10 00:34:59;;;;;;;6.85;6.15;;;;;;;15.13;48.82;100223.38;5091505;28;20035;-81
2022/10/10 00:37:24;;;;;;;7.90;6.50;;;;;;;15.04;49.23;100213.88;5091888;28;20016;-82
2022/10/10 00:39:50;;;;;;;7.80;5.55;;;;;;;15.49;49.08;100286.31;5092750;28;20232;-82
2022/10/10 00:42:16;;;;;;;7.82;5.50;;;;;;;15.42;48.89;100283.59;5092472;28;20085;-82
2022/10/10 00:44:45;;;;;;;7.72;5.90;;;;;;;15.53;49.02;100311.53;5092721;28;20117;-82
2022/10/10 00:47:11;;;;;;;6.65;5.93;;;;;;;14.72;49.01;100201.88;5096141;28;20028;-81
2022/10/10 00:49:40;;;;;;;7.78;6.13;;;;;;;15.45;49.35;100315.13;5101162;28;20027;-81
2022/10/10 00:52:08;;;;;;;7.32;6.00;;;;;;;15.30;49.54;100317.03;5094755;28;20078;-82
2022/10/10 00:54:35;;;;;;;9.90;5.95;;;;;;;14.61;49.45;100203.19;5091187;28;20031;-81
2022/10/10 00:57:12;;;;;;;7.72;6.53;;;;;;;15.34;49.42;100322.81;5091101;28;20069;-81
2022/10/10 00:59:41;;;;;;;7.13;6.03;;;;;;;14.93;49.61;100256.91;5092573;28;20404;-81
2022/10/10 01:02:07;;;;;;;6.80;6.10;;;;;;;15.29;49.76;100310.06;5092043;28;20054;-81
2022/10/10 01:04:39;;;;;;;7.82;6.45;;;;;;;14.93;49.67;100252.44;5092303;28;20098;-81
2022/10/10 01:07:13;;;;;;;9.15;6.38;;;;;;;14.48;50.10;100205.69;5090828;28;20453;-81
2022/10/10 01:09:41;;;;;;;7.80;6.93;;;;;;;14.87;49.92;100255.84;5092215;28;20020;-82
2022/10/10 01:12:23;;;;;;;8.93;6.32;;;;;;;14.44;50.17;100193.81;5092317;28;20028;-81
2022/10/10 01:15:08;;;;;;;;;;;;;;;15.01;50.73;100314.47;5091264;28;20020;-81
2022/10/10 01:17:43;;;;;;;7.18;6.05;;;;;;;15.08;50.16;100318.88;5090172;28;19912;-81
2022/10/10 01:20:18;;;;;;;6.65;5.97;;;;;;;15.11;50.34;100328.31;5091937;28;20073;-81
2022/10/10 01:23:01;;;;;;;7.35;6.15;;;;;;;15.05;50.01;100319.25;5091895;28;20024;-81
2022/10/10 01:25:55;;;;;;;9.65;6.93;;;;;;;14.62;50.51;100252.66;5091639;28;20023;-81
2022/10/10 01:28:44;;;;;;;8.25;6.18;;;;;;;14.60;50.89;100259.19;5091532;28;20157;-81
2022/10/10 01:31:14;;;;;;;8.23;7.38;;;;;;;14.66;50.63;100281.53;5090353;28;20505;-81
2022/10/10 01:33:49;;;;;;;9.75;6.35;;;;;;;14.89;50.97;100322.94;5091659;28;20016;-82
2022/10/10 01:36:28;;;;;;;11.10;7.00;;;;;;;14.31;50.70;100234.28;5091730;28;20024;-82
2022/10/10 01:39:06;;;;;;;10.55;7.65;;;;;;;13.31;50.43;100069.38;5091713;28;20027;-82
2022/10/10 01:42:03;;;;;;;8.63;7.80;;;;;;;14.94;50.47;100325.03;5090216;28;20095;-82
2022/10/10 01:44:29;;;;;;;8.75;6.55;;;;;;;14.52;50.73;100297.31;5090907;28;20035;-81
2022/10/10 01:46:54;;;;;;;7.90;6.72;;;;;;;14.68;51.00;100343.31;5091593;28;20455;-82
2022/10/10 01:49:23;;;;;;;13.75;7.53;;;;;;;13.63;50.91;100155.75;5090189;28;20554;-82
2022/10/10 01:52:30;;;;;;;7.80;7.03;;;;;;;14.67;51.35;100341.66;5091331;28;20025;-81
2022/10/10 01:55:11;;;;;;;7.95;7.10;;;;;;;14.59;51.26;100334.59;5091482;28;20512;-82
2022/10/10 01:57:58;;;;;;;9.45;7.80;;;;;;;14.60;51.38;100336.25;5091604;28;20034;-82
2022/10/10 02:00:24;;;;;;;9.05;7.55;;;;;;;13.99;51.52;100234.66;5091481;28;20107;-81
2022/10/10 02:02:58;;;;;;;8.18;7.35;;;;;;;14.66;51.42;100347.97;5091216;28;20047;-82
2022/10/10 02:06:01;;;;;;;10.40;6.85;;;;;;;14.29;51.54;100280.63;5090014;28;20115;-82
2022/10/10 02:08:34;;;;;;;9.23;6.97;;;;;;;14.75;51.34;100354.84;5049232;28;20039;-82
2022/10/10 02:11:09;;;;;;;7.53;6.82;;;;;;;14.73;51.16;100356.88;5085580;28;20088;-82
2022/10/10 02:13:43;;;;;;;9.85;7.78;;;;;;;14.14;51.69;100270.00;5091402;28;20028;-81
2022/10/10 02:16:15;;;;;;;12.98;7.82;;;;;;;13.97;51.73;100264.03;5091225;28;20027;-81
2022/10/10 02:18:44;;;;;;;;;;;;;;;14.44;52.51;100353.22;5091596;28;20028;-82
2022/10/10 02:21:11;;;;;;;9.18;6.93;;;;;;;14.25;51.89;100316.53;5089981;28;19908;-82
2022/10/10 02:23:39;;;;;;;8.10;6.95;;;;;;;14.60;51.79;100370.81;5091170;28;20411;-82
2022/10/10 02:26:05;;;;;;;9.93;7.10;;;;;;;14.09;51.62;100266.22;5089917;28;20020;-81
2022/10/10 02:28:42;;;;;;;8.45;7.07;;;;;;;13.99;51.85;100264.66;5091280;28;20023;-82
2022/10/10 02:31:11;;;;;;;13.60;7.43;;;;;;;13.93;51.55;100256.63;5089771;28;20024;-82
2022/10/10 02:33:47;;;;;;;10.07;7.90;;;;;;;14.62;52.31;100366.94;5091264;28;20493;-82
2022/10/10 02:36:15;;;;;;;8.43;7.00;;;;;;;14.57;51.70;100368.50;5091635;28;20028;-82
2022/10/10 02:38:42;;;;;;;8.68;7.20;;;;;;;14.04;51.85;100284.53;5091147;28;20097;-82
2022/10/10 02:41:10;;;;;;;9.95;7.07;;;;;;;14.28;51.84;100346.22;5094895;28;20118;-82
2022/10/10 02:43:37;;;;;;;12.05;7.03;;;;;;;14.16;51.72;100312.31;5093452;28;20020;-82
2022/10/10 02:46:07;;;;;;;10.05;6.95;;;;;;;13.89;51.96;100280.03;5095091;28;20043;-81
2022/10/10 02:48:32;;;;;;;9.63;8.20;;;;;;;14.05;51.99;100304.78;5094792;28;20024;-82
2022/10/10 02:50:58;;;;;;;10.20;7.40;;;;;;;14.16;51.79;100322.94;5094603;28;20028;-82
2022/10/10 02:53:24;;;;;;;9.60;8.20;;;;;;;14.53;51.95;100376.03;5094565;28;20027;-82
2022/10/10 02:55:49;;;;;;;9.88;7.78;;;;;;;13.89;52.31;100290.66;5094925;28;20016;-81
2022/10/10 02:58:15;;;;;;;9.32;8.13;;;;;;;13.97;52.17;100298.53;5093519;28;20016;-82
2022/10/10 03:00:40;;;;;;;10.70;7.93;;;;;;;14.31;52.02;100359.13;5094630;28;20036;-82
2022/10/10 03:03:06;;;;;;;9.38;8.27;;;;;;;13.82;51.91;100294.22;5094653;28;20051;-81
2022/10/10 03:05:31;;;;;;;9.93;7.78;;;;;;;14.09;52.11;100328.13;5094432;28;20031;-81
2022/10/10 03:07:56;;;;;;;10.25;7.80;;;;;;;13.64;51.79;100254.75;5093048;28;20400;-82
2022/10/10 03:10:22;;;;;;;9.63;8.13;;;;;;;12.34;51.80;100060.44;5094618;28;20020;-81
2022/10/10 03:12:47;;;;;;;11.80;7.97;;;;;;;14.05;51.61;100326.03;5094356;28;20024;-81
2022/10/10 03:15:13;;;;;;;11.10;8.35;;;;;;;14.17;51.81;100361.78;5093027;28;20016;-82
2022/10/10 03:17:38;;;;;;;9.93;8.30;;;;;;;14.22;51.60;100388.63;5094088;28;20027;-82
2022/10/10 03:20:05;;;;;;;9.70;8.00;;;;;;;14.17;51.61;100364.44;5094169;28;20027;-82
2022/10/10 03:22:30;;;;;;;15.63;9.95;;;;;;;13.61;51.50;100282.47;5094223;28;20023;-81
2022/10/10 03:24:55;;;;;;;11.43;8.93;;;;;;;13.97;51.48;100361.44;5092965;28;20028;-82
2022/10/10 03:27:21;;;;;;;11.23;9.40;;;;;;;13.58;51.68;100285.47;5094146;28;20035;-82
2022/10/10 03:29:46;;;;;;;13.15;9.32;;;;;;;13.99;51.57;100349.63;5094107;28;20024;-82
2022/10/10 03:32:12;;;;;;;11.05;8.63;;;;;;;14.12;51.32;100391.53;5094027;28;20572;-81
2022/10/10 03:34:37;;;;;;;10.60;9.45;;;;;;;13.12;51.58;100234.25;5093965;28;20032;-82
2022/10/10 03:37:02;;;;;;;11.65;9.40;;;;;;;13.93;51.73;100347.69;5094192;28;20028;-81
2022/10/10 03:39:28;;;;;;;10.65;8.85;;;;;;;14.14;51.87;100394.00;5093956;28;20029;-82
2022/10/10 03:41:53;;;;;;;11.52;8.82;;;;;;;13.96;51.90;100367.75;5093855;28;20073;-82
2022/10/10 03:44:19;;;;;;;12.18;8.88;;;;;;;13.33;52.09;100276.03;5093674;28;20558;-82
2022/10/10 03:46:44;;;;;;;10.27;8.88;;;;;;;13.73;52.28;100354.50;5092422;28;20058;-82
2022/10/10 03:49:10;;;;;;;10.07;9.07;;;;;;;13.64;52.18;100350.28;5093441;28;20077;-82
2022/10/10 03:51:35;;;;;;;10.88;8.85;;;;;;;13.57;52.13;100336.91;5093496;28;20023;-82
2022/10/10 03:54:00;;;;;;;12.85;9.05;;;;;;;13.44;51.98;100306.66;5093649;28;20035;-82
2022/10/10 03:56:26;;;;;;;9.63;8.60;;;;;;;12.61;51.75;100167.66;5093517;28;20488;-82
2022/10/10 03:58:51;;;;;;;10.45;8.55;;;;;;;13.66;51.99;100349.09;5093413;28;20027;-82
2022/10/10 04:01:16;;;;;;;13.77;9.38;;;;;;;14.07;51.63;100390.38;5091756;28;20035;-82
2022/10/10 04:03:42;;;;;;;15.35;10.02;;;;;;;14.15;51.68;100412.41;5093246;28;20485;-82
2022/10/10 04:06:07;;;;;;;13.95;9.23;;;;;;;14.31;51.64;100438.00;5092015;28;20035;-82
2022/10/10 04:08:33;;;;;;;10.88;9.55;;;;;;;13.31;51.51;100286.84;5093402;28;20028;-82
2022/10/10 04:10:58;;;;;;;13.10;9.13;;;;;;;13.76;51.65;100361.28;5093148;28;20107;-82
2022/10/10 04:13:24;;;;;;;9.52;8.63;;;;;;;13.49;51.83;100322.88;5091974;28;20016;-81
2022/10/10 04:15:51;;;;;;;11.88;9.57;;;;;;;13.44;51.76;100327.88;5093087;28;20039;-82
2022/10/10 04:18:17;;;;;;;14.52;9.90;;;;;;;13.63;51.84;100359.25;5091553;28;20081;-82
2022/10/10 04:20:43;;;;;;;13.73;10.68;;;;;;;13.90;52.02;100411.78;5092817;28;20016;-82
2022/10/10 04:23:08;;;;;;;10.93;9.25;;;;;;;13.50;52.25;100348.41;5093067;28;20043;-82
2022/10/10 04:25:34;;;;;;;15.20;10.57;;;;;;;14.17;52.12;100449.41;5091784;28;20020;-82
2022/10/10 04:27:59;;;;;;;11.98;9.60;;;;;;;14.21;51.74;100464.00;5091803;28;20028;-82
2022/10/10 04:30:24;;;;;;;13.15;10.55;;;;;;;13.67;51.83;100357.88;5093283;28;20020;-82
2022/10/10 04:32:50;;;;;;;14.77;10.05;;;;;;;13.96;51.54;100405.75;5093424;28;20028;-82
2022/10/10 04:35:15;;;;;;;17.10;11.45;;;;;;;14.18;51.66;100443.09;5093067;28;20027;-81
2022/10/10 04:37:41;;;;;;;15.73;12.07;;;;;;;14.17;52.42;100450.25;5104200;28;20035;-82
2022/10/10 04:40:07;;;;;;;17.15;12.57;;;;;;;13.95;51.98;100428.00;5114354;28;20031;-81
2022/10/10 04:42:32;;;;;;;20.70;11.60;;;;;;;13.36;52.12;100334.88;5114559;28;20020;-82
2022/10/10 04:44:58;;;;;;;16.95;12.45;;;;;;;12.57;52.43;100224.66;5114219;28;20024;-80
2022/10/10 04:47:23;;;;;;;13.18;11.07;;;;;;;14.08;52.40;100464.56;5094836;28;20539;-82
2022/10/10 04:49:49;;;;;;;13.15;10.38;;;;;;;13.74;52.55;100430.47;5092672;28;20024;-81
2022/10/10 04:52:14;;;;;;;17.95;11.05;;;;;;;13.62;52.70;100427.41;5092628;28;20102;-82
2022/10/10 04:54:40;;;;;;;13.27;10.95;;;;;;;13.81;52.80;100450.00;5092696;28;20528;-82
2022/10/10 04:57:05;;;;;;;15.32;11.18;;;;;;;13.51;52.93;100406.59;5092532;28;20096;-82
2022/10/10 04:59:30;;;;;;;15.57;11.93;;;;;;;13.13;52.89;100351.72;5092517;28;20028;-82
2022/10/10 05:01:56;;;;;;;12.18;10.63;;;;;;;13.58;52.72;100422.63;5091291;28;20040;-82
2022/10/10 05:04:21;;;;;;;18.17;12.38;;;;;;;13.47;52.97;100405.28;5092186;28;20046;-81
2022/10/10 05:06:47;;;;;;;14.68;11.32;;;;;;;13.83;53.12;100479.84;5092057;28;20031;-82
2022/10/10 05:09:12;;;;;;;19.75;11.93;;;;;;;13.37;52.99;100431.19;5090687;28;20012;-82
2022/10/10 05:11:38;;;;;;;16.60;12.52;;;;;;;13.02;53.17;100384.75;5092213;28;20103;-82
2022/10/10 05:14:03;;;;;;;15.57;11.05;;;;;;;13.11;53.78;100404.09;5090836;28;20507;-82
2022/10/10 05:16:29;;;;;;;17.30;11.35;;;;;;;13.50;53.74;100465.13;5092305;28;20024;-82
2022/10/10 05:18:56;;;;;;;12.68;11.00;;;;;;;13.10;53.28;100381.25;5092087;28;20024;-82
2022/10/10 05:21:22;;;;;;;20.52;11.93;;;;;;;13.81;53.12;100495.13;5092534;28;20508;-82
2022/10/10 05:23:48;;;;;;;15.27;11.13;;;;;;;13.09;53.33;100385.72;5092007;28;20058;-82
2022/10/10 05:26:13;;;;;;;16.25;10.43;;;;;;;13.17;53.20;100404.28;5091873;28;20020;-82
2022/10/10 05:28:39;;;;;;;15.55;11.55;;;;;;;13.31;53.56;100430.06;5091830;28;20020;-82
2022/10/10 05:31:05;;;;;;;15.15;11.38;;;;;;;13.47;53.56;100449.56;5089504;28;20032;-82
2022/10/10 05:33:32;;;;;;;15.88;10.77;;;;;;;13.55;53.36;100460.13;5079650;28;20023;-82
2022/10/10 05:36:11;;;;;;;16.05;12.38;;;;;;;13.39;53.41;100436.34;5091805;28;20060;-82
2022/10/10 05:38:39;;;;;;;17.10;11.70;;;;;;;13.82;52.99;100480.03;5090605;28;20023;-82
2022/10/10 05:41:05;;;;;;;16.63;11.13;;;;;;;13.65;52.93;100436.84;5088385;28;20462;-82
2022/10/10 05:43:30;;;;;;;19.75;11.25;;;;;;;13.75;52.98;100448.06;5082275;28;20044;-83
2022/10/10 05:45:56;;;;;;;18.25;11.77;;;;;;;14.22;52.87;100514.28;5081331;28;20544;-82
2022/10/10 05:48:22;;;;;;;20.20;12.25;;;;;;;14.18;52.81;100514.81;5071899;28;20016;-81
2022/10/10 05:50:50;;;;;;;19.48;10.80;;;;;;;14.32;52.75;100506.91;5073887;28;20047;-81
2022/10/10 05:53:16;;;;;;;13.88;11.68;;;;;;;13.85;52.44;100426.59;5077281;28;20024;-82
2022/10/10 05:55:43;;;;;;;18.48;12.43;;;;;;;13.53;52.33;100358.66;5086354;28;20044;-82
2022/10/10 05:58:12;;;;;;;18.38;12.48;;;;;;;14.61;52.42;100514.13;5086447;28;20027;-81
2022/10/10 06:00:38;;;;;;;14.23;12.00;;;;;;;13.87;52.24;100380.28;5086744;28;20024;-82
2022/10/10 06:03:03;;;;;;;16.52;12.30;;;;;;;13.93;52.36;100387.53;5079979;28;20040;-81
2022/10/10 06:05:29;;;;;;;15.82;11.13;;;;;;;14.53;51.91;100484.97;5079323;28;20501;-82
2022/10/10 06:07:54;;;;;;;15.45;10.73;;;;;;;14.42;51.93;100447.38;5071410;28;20051;-82
2022/10/10 06:10:19;;;;;;;20.80;11.75;;;;;;;14.83;52.03;100511.59;5074770;28;20166;-81
2022/10/10 06:12:45;;;;;;;20.63;12.18;;;;;;;13.94;52.06;100346.69;5088391;28;20028;-82
2022/10/10 06:15:10;;;;;;;18.38;11.10;;;;;;;14.57;52.15;100462.34;5095653;28;20024;-82
2022/10/10 06:17:36;;;;;;;17.30;12.15;;;;;;;14.30;52.21;100401.81;5085872;28;20413;-82
2022/10/10 06:20:02;;;;;;;15.88;10.25;;;;;;;15.03;52.12;100499.44;5075258;28;20043;-82
2022/10/10 06:22:28;;;;;;;17.35;11.15;;;;;;;14.96;51.71;100479.91;5075256;28;20594;-82
2022/10/10 06:24:53;;;;;;;21.05;12.90;;;;;;;15.37;52.18;100525.47;5091376;28;20148;-81
2022/10/10 06:27:19;;;;;;;23.63;12.95;;;;;;;15.00;52.05;100446.63;5077130;28;20021;-81
2022/10/10 06:29:44;;;;;;;18.40;12.30;;;;;;;14.89;51.80;100425.81;5093478;28;20489;-81
2022/10/10 06:32:09;;;;;;;19.35;11.93;;;;;;;15.51;51.83;100513.16;5085618;28;20025;-82
2022/10/10 06:34:35;;;;;;;17.38;11.02;;;;;;;15.31;51.58;100473.00;5089419;28;20027;-82
2022/10/10 06:37:00;;;;;;;17.08;11.13;;;;;;;15.21;51.77;100451.19;5094844;28;20060;-82
2022/10/10 06:39:25;;;;;;;13.25;10.23;;;;;;;15.67;51.79;100486.38;5093643;28;20020;-82
2022/10/10 06:41:51;;;;;;;19.27;13.55;;;;;;;16.00;51.73;100507.22;5094661;28;20024;-81
2022/10/10 06:44:17;;;;;;;15.52;11.23;;;;;;;16.20;51.96;100538.34;5094303;28;20016;-81
2022/10/10 06:46:43;;;;;;;21.95;13.88;;;;;;;15.90;51.88;100475.56;5085730;28;20468;-81
2022/10/10 06:49:08;;;;;;;19.52;12.50;;;;;;;15.12;51.58;100360.03;5092515;28;20028;-82
2022/10/10 06:51:34;;;;;;;17.85;11.80;;;;;;;16.16;51.55;100480.31;5088140;28;20036;-82
2022/10/10 06:54:00;;;;;;;13.70;10.10;;;;;;;16.25;51.55;100473.84;5085292;28;20036;-80
2022/10/10 06:56:26;;;;;;;17.63;10.65;;;;;;;16.66;51.17;100527.34;5074645;28;20021;-82
2022/10/10 06:58:52;;;;;;;14.05;10.73;;;;;;;16.45;51.50;100500.69;5089785;28;20107;-82
2022/10/10 07:01:19;;;;;;;17.92;10.50;;;;;;;16.54;51.23;100486.19;5085777;28;20100;-82
2022/10/10 07:03:45;;;;;;;14.50;11.00;;;;;;;16.59;51.22;100473.09;5085335;28;20452;-82
2022/10/10 07:06:11;;;;;;;18.83;14.88;;;;;;;16.36;51.21;100428.03;5086870;28;20020;-82
2022/10/10 07:08:38;;;;;;;15.13;12.25;;;;;;;17.05;51.27;100529.44;5094777;28;20016;-82
2022/10/10 07:11:06;;;;;;;16.13;13.60;;;;;;;16.31;51.04;100406.44;5092963;28;20059;-82
2022/10/10 07:13:32;;;;;;;15.75;12.00;;;;;;;16.53;50.96;100424.06;5091384;28;20054;-82
2022/10/10 07:15:58;;;;;;;15.85;11.45;;;;;;;16.80;50.79;100475.75;5085805;28;20417;-81
2022/10/10 07:18:23;;;;;;;12.68;10.30;;;;;;;16.71;50.71;100434.25;5082225;28;20028;-82
2022/10/10 07:20:49;;;;;;;19.38;11.52;;;;;;;17.30;50.67;100512.97;5075667;28;20112;-82
2022/10/10 07:23:16;;;;;;;17.33;12.95;;;;;;;16.87;50.36;100470.44;5084040;28;20039;-82
2022/10/10 07:25:42;;;;;;;13.57;12.27;;;;;;;17.31;50.16;100495.94;5077862;28;20059;-82
2022/10/10 07:28:08;;;;;;;19.38;11.93;;;;;;;17.38;50.24;100505.63;5072055;28;20141;-82
2022/10/10 07:30:39;;;;;;;14.77;12.32;;;;;;;16.98;50.03;100431.72;5086079;28;20024;-82
2022/10/10 07:33:05;;;;;;;12.98;11.15;;;;;;;17.20;50.17;100472.50;5091867;28;20605;-82
2022/10/10 07:35:30;;;;;;;15.25;10.73;;;;;;;17.13;50.12;100459.94;5093092;28;20036;-82
2022/10/10 07:37:55;;;;;;;14.82;11.43;;;;;;;17.59;49.79;100511.88;5080554;28;20016;-82
2022/10/10 07:40:21;;;;;;;16.20;10.30;;;;;;;17.67;49.91;100530.41;5077837;28;20021;-82
2022/10/10 07:42:47;;;;;;;12.40;10.70;;;;;;;17.12;49.42;100414.78;5077109;28;20039;-82
2022/10/10 07:45:12;;;;;;;16.65;11.32;;;;;;;17.83;49.34;100575.47;5093865;28;20028;-82
2022/10/10 07:47:39;;;;;;;15.27;11.25;;;;;;;17.90;49.38;100520.25;5093910;28;20020;-83
2022/10/10 07:50:06;;;;;;;15.80;10.98;;;;;;;17.38;49.03;100432.72;5085092;28;20031;-83
2022/10/10 07:52:33;;;;;;;14.98;11.77;;;;;;;17.54;48.98;100440.38;5072200;28;20024;-83
2022/10/10 07:54:58;;;;;;;15.57;10.13;;;;;;;17.59;48.93;100455.78;5079482;28;20034;-82
2022/10/10 07:57:24;;;;;;;12.15;10.73;;;;;;;17.69;48.63;100440.22;5091806;28;20020;-81
2022/10/10 07:59:49;;;;;;;12.32;9.82;;;;;;;18.14;48.68;100537.56;5075982;28;20012;-81
2022/10/10 08:02:15;;;;;;;12.20;9.52;;;;;;;17.68;48.65;100425.22;5072147;28;20505;-83
2022/10/10 08:04:40;;;;;;;15.07;8.82;;;;;;;17.69;48.32;100417.03;5076961;28;20077;-81
2022/10/10 08:07:06;;;;;;;13.18;8.88;;;;;;;17.82;48.24;100431.41;5082025;28;20095;-82
2022/10/10 08:09:31;;;;;;;15.85;9.35;;;;;;;17.88;47.82;100441.31;5076379;28;20029;-82
2022/10/10 08:11:57;;;;;;;15.57;11.68;;;;;;;18.41;47.67;100515.16;5082050;28;20028;-83
2022/10/10 08:14:22;;;;;;;17.10;8.65;;;;;;;18.33;47.50;100469.91;5076636;28;20463;-81
2022/10/10 08:16:47;;;;;;;14.50;9.18;;;;;;;18.70;47.81;100538.06;5072694;28;20047;-82
2022/10/10 08:19:13;;;;;;;13.35;8.65;;;;;;;18.20;46.99;100413.78;5081456;28;20115;-81
2022/10/10 08:21:38;;;;;;;11.85;8.82;;;;;;;18.83;46.68;100496.28;5088423;28;20481;-83
2022/10/10 08:24:04;;;;;;;12.45;7.90;;;;;;;18.81;46.57;100496.47;5071976;28;20342;-82
2022/10/10 08:26:29;;;;;;;10.13;6.70;;;;;;;18.48;46.58;100412.72;5079765;28;20058;-81
2022/10/10 08:28:55;;;;;;;11.35;8.02;;;;;;;18.62;46.21;100423.25;5076092;28;20024;-79
2022/10/10 08:31:21;;;;;;;12.07;8.20;;;;;;;19.39;46.01;100536.72;5078803;28;20500;-80
2022/10/10 08:33:50;;;;;;;13.00;9.20;;;;;;;19.21;45.71;100507.91;5097787;28;20008;-81
2022/10/10 08:36:21;;;;;;;13.27;8.65;;;;;;;18.84;45.59;100468.47;5098465;28;20012;-80
2022/10/10 08:38:47;;;;;;;10.70;9.60;;;;;;;18.94;45.29;100455.50;5082410;28;20554;-80
2022/10/10 08:41:40;;;;;;;11.70;7.35;;;;;;;19.58;45.29;100541.22;5072829;28;20087;-81
2022/10/10 08:44:27;;;;;;;11.60;7.60;;;;;;;19.47;45.21;100507.03;5073046;28;20020;-80
2022/10/10 08:46:57;;;;;;;11.25;7.55;;;;;;;19.44;45.10;100477.97;5073639;28;20062;-80
2022/10/10 08:49:31;;;;;;;10.45;9.40;;;;;;;19.07;45.03;100401.91;5084254;28;20052;-81
2022/10/10 08:52:20;;;;;;;10.02;8.70;;;;;;;19.81;44.67;100505.84;5092791;28;20024;-81
2022/10/10 08:54:48;;;;;;;11.95;10.13;;;;;;;19.54;44.45;100469.50;5072194;28;20027;-79
2022/10/10 08:57:28;;;;;;;11.02;7.88;;;;;;;19.79;44.16;100478.44;5088128;28;20024;-81
2022/10/10 09:00:05;;;;;;;8.68;7.78;;;;;;;19.87;44.56;100472.81;5075239;28;20028;-81
2022/10/10 09:02:37;;;;;;;11.07;7.28;;;;;;;19.81;43.96;100452.25;5086891;28;20048;-81
2022/10/10 09:05:03;;;;;;;10.65;7.25;;;;;;;20.11;43.80;100491.88;5092896;28;20028;-81
2022/10/10 09:07:37;;;;;;;10.50;7.97;;;;;;;20.53;43.56;100523.34;5085915;28;20081;-81
2022/10/10 09:10:15;;;;;;;10.43;7.32;;;;;;;20.68;43.28;100535.59;5072852;28;20141;-81
2022/10/10 09:12:59;;;;;;;10.27;8.20;;;;;;;20.73;43.31;100523.16;5077488;28;20023;-81
2022/10/10 09:15:33;;;;;;;14.98;11.80;;;;;;;20.77;43.42;100513.63;5083253;28;20031;-81
2022/10/10 09:18:14;;;;;;;11.77;7.65;;;;;;;20.67;42.99;100488.34;5084954;28;20027;-80
2022/10/10 09:21:02;;;;;;;9.80;7.28;;;;;;;20.77;42.68;100477.91;5099910;28;20110;-81
2022/10/10 09:23:31;;;;;;;16.02;9.10;;;;;;;21.26;42.44;100522.69;5086121;28;20496;-81
2022/10/10 09:26:02;;;;;;;17.48;11.35;;;;;;;21.37;42.09;100519.25;5072417;28;20031;-81
2022/10/10 09:28:43;;;;;;;11.50;9.02;;;;;;;20.74;41.80;100405.91;5078600;28;20027;-81
2022/10/10 09:31:30;;;;;;;9.80;6.57;;;;;;;21.53;41.50;100521.31;5074871;28;20039;-82
2022/10/10 09:33:55;;;;;;;10.38;8.57;;;;;;;21.64;41.25;100511.72;5070958;28;20035;-81
2022/10/10 09:36:25;;;;;;;8.65;7.03;;;;;;;21.76;40.83;100512.56;5073731;28;20409;-82
2022/10/10 09:38:54;;;;;;;14.18;12.13;;;;;;;21.72;40.75;100476.44;5084898;28;20487;-81
2022/10/10 09:41:28;;;;;;;21.25;7.60;;;;;;;21.45;40.50;100418.72;5080148;28;20508;-81
2022/10/10 09:43:56;;;;;;;13.00;10.48;;;;;;;22.07;40.35;100503.47;5077382;28;20024;-81
2022/10/10 09:46:22;;;;;;;12.32;7.60;;;;;;;22.08;39.94;100491.66;5084807;28;20032;-81
2022/10/10 09:48:48;;;;;;;11.95;9.05;;;;;;;21.36;39.88;100351.03;5075866;28;20061;-81
2022/10/10 09:51:16;;;;;;;16.45;11.80;;;;;;;22.45;39.41;100505.78;5077343;28;20104;-81
2022/10/10 09:53:43;;;;;;;10.65;7.57;;;;;;;22.56;38.84;100506.84;5070147;28;20147;-81
2022/10/10 09:56:20;;;;;;;10.32;7.00;;;;;;;22.65;38.55;100505.44;5076943;28;20073;-80
2022/10/10 09:58:51;;;;;;;9.93;7.10;;;;;;;22.65;38.31;100477.72;5072985;28;20016;-81
2022/10/10 10:01:30;;;;;;;7.15;5.55;;;;;;;22.38;37.92;100421.66;5072921;28;20509;-80
2022/10/10 10:04:15;;;;;;;8.00;6.00;;;;;;;22.93;37.45;100493.19;5079998;28;20020;-79
2022/10/10 10:06:47;;;;;;;9.82;7.15;;;;;;;22.74;37.71;100463.66;5075573;28;20511;-80
2022/10/10 10:09:17;;;;;;;8.70;7.03;;;;;;;21.74;37.41;100256.63;5081648;28;20076;-80
2022/10/10 10:11:45;;;;;;;12.05;8.77;;;;;;;22.32;37.21;100341.88;5083453;28;20048;-80
2022/10/10 10:14:27;;;;;;;10.07;6.80;;;;;;;23.36;36.98;100482.81;5073430;28;20416;-81
2022/10/10 10:17:03;;;;;;;8.65;6.65;;;;;;;23.08;37.00;100431.59;5084088;28;20451;-80
2022/10/10 10:19:41;;;;;;;8.85;6.55;;;;;;;23.44;36.33;100471.66;5090246;28;20031;-81
2022/10/10 10:22:24;;;;;;;11.73;7.03;;;;;;;23.62;36.39;100491.44;5072699;28;20017;-81
2022/10/10 10:24:49;;;;;;;10.25;6.40;;;;;;;23.20;36.39;100407.31;5071106;28;20056;-80
2022/10/10 10:27:17;;;;;;;12.75;6.72;;;;;;;23.79;36.41;100486.09;5071414;28;20386;-82
2022/10/10 10:29:49;;;;;;;8.50;6.30;;;;;;;23.35;36.32;100381.47;5090531;28;20030;-81
2022/10/10 10:32:22;;;;;;;9.00;6.88;;;;;;;23.49;36.22;100397.34;5077809;28;20067;-80
2022/10/10 10:35:06;;;;;;;7.70;6.90;;;;;;;23.90;36.16;100460.94;5067917;28;20454;-80
2022/10/10 10:37:45;;;;;;;7.03;5.80;;;;;;;23.76;36.13;100461.22;5073198;28;20055;-80
2022/10/10 10:40:23;;;;;;;10.55;6.25;;;;;;;23.67;36.13;100451.91;5079457;28;20031;-81
2022/10/10 10:43:13;;;;;;;8.90;6.80;;;;;;;23.65;36.31;100451.31;5088382;28;20520;-81
2022/10/10 10:45:53;;;;;;;15.30;6.95;;;;;;;23.83;36.04;100453.00;5083031;28;20028;-81
2022/10/10 10:48:38;;;;;;;15.53;6.60;;;;;;;23.99;35.77;100446.81;5076631;28;20438;-80
2022/10/10 10:51:22;;;;;;;8.15;5.85;;;;;;;24.05;35.74;100439.63;5082075;28;20320;-81
2022/10/10 10:53:50;;;;;;;7.25;6.13;;;;;;;24.18;35.26;100438.50;5070890;28;20071;-80
2022/10/10 10:56:24;;;;;;;9.77;5.60;;;;;;;24.32;35.00;100421.75;5072488;28;20028;-81
2022/10/10 10:59:11;;;;;;;7.00;5.85;;;;;;;24.51;35.02;100424.16;5072490;28;20036;-81
2022/10/10 11:01:46;;;;;;;10.55;6.70;;;;;;;24.52;34.50;100413.13;5075877;28;20122;-81
2022/10/10 11:04:49;;;;;;;9.73;6.72;;;;;;;24.69;34.46;100415.81;5079959;28;20043;-81
2022/10/10 11:07:21;;;;;;;8.63;5.60;;;;;;;24.17;34.32;100310.84;5072059;28;20117;-81
2022/10/10 11:10:10;;;;;;;8.82;6.88;;;;;;;24.78;33.86;100406.22;5088172;28;20031;-81
2022/10/10 11:12:56;;;;;;;14.80;7.25;;;;;;;24.75;34.32;100408.59;5090990;28;20518;-81
2022/10/10 11:15:35;;;;;;;10.27;6.30;;;;;;;24.56;33.90;100389.16;5093338;28;20039;-81
2022/10/10 11:18:21;;;;;;;7.13;6.22;;;;;;;24.62;33.75;100404.38;5093429;28;20024;-80
2022/10/10 11:20:57;;;;;;;8.82;5.85;;;;;;;24.51;33.90;100405.28;5093169;28;20472;-80
2022/10/10 11:23:35;;;;;;;8.90;6.30;;;;;;;24.40;33.65;100377.31;5093514;28;20031;-81
2022/10/10 11:26:16;;;;;;;12.98;7.93;;;;;;;24.56;33.67;100406.19;5092479;28;20028;-79
2022/10/10 11:28:51;;;;;;;10.23;6.07;;;;;;;24.14;34.05;100335.63;5080830;28;20507;-80